sensor_id;sensor_type;location;lat;lon;timestamp;P1;durP1;ratioP1;P2;durP2;ratioP2
2446;SDS011;26430;48.818;9.244;2023-08-21T00:01:56;4.67;;;0.87;;
2446;SDS011;26430;48.818;9.244;2023-08-21T00:04:23;4.70;;;0.90;;
2446;SDS011;26430;48.818;9.244;2023-08-21T00:06:48;4.70;;;0.80;;
2446;SDS011;26430;48.818;9.244;2023-08-21T00:09:14;4.70;;;0.90;;
2446;SDS011;26430;48.818;9.244;2023-08-21T00:11:39;4.70;;;0.90;;
2446;SDS011;26430;48.818;9.244;2023-08-21T00:14:05;4.70;;;0.87;;
2446;SDS011;26430;48.818;9.244;2023-08-21T00:16:31;4.70;;;0.80;;
2446;SDS011;26430;48.818;9.244;2023-08-21T00:18:57;4.70;;;0.90;;
2446;SDS011;26430;48.818;9.244;2023-08-21T00:21:22;4.70;;;0.90;;
2446;SDS011;26430;48.818;9.244;2023-08-21T00:23:48;4.70;;;0.80;;
2446;SDS011;26430;48.818;9.244;2023-08-21T00:26:14;4.70;;;0.90;;
2446;SDS011;26430;48.818;9.244;2023-08-21T00:28:39;4.63;;;0.90;;
2446;SDS011;26430;48.818;9.244;2023-08-21T00:31:05;4.67;;;0.80;;
2446;SDS011;26430;48.818;9.244;2023-08-21T00:33:31;4.60;;;0.87;;
2446;SDS011;26430;48.818;9.244;2023-08-21T00:35:57;5.20;;;2.70;;
2446;SDS011;26430;48.818;9.244;2023-08-21T00:38:23;4.67;;;0.87;;
2446;SDS011;26430;48.818;9.244;2023-08-21T00:40:48;4.67;;;0.90;;
2446;SDS011;26430;48.818;9.244;2023-08-21T00:43:14;4.63;;;0.80;;
2446;SDS011;26430;48.818;9.244;2023-08-21T00:45:40;4.63;;;0.90;;
2446;SDS011;26430;48.818;9.244;2023-08-21T00:48:09;4.70;;;1.10;;
2446;SDS011;26430;48.818;9.244;2023-08-21T00:50:36;4.70;;;0.90;;
2446;SDS011;26430;48.818;9.244;2023-08-21T00:53:02;4.63;;;0.90;;
2446;SDS011;26430;48.818;9.244;2023-08-21T00:55:31;4.70;;;0.90;;
2446;SDS011;26430;48.818;9.244;2023-08-21T00:57:58;4.70;;;0.90;;
2446;SDS011;26430;48.818;9.244;2023-08-21T01:00:25;4.70;;;0.90;;
2446;SDS011;26430;48.818;9.244;2023-08-21T01:02:53;4.70;;;0.87;;
2446;SDS011;26430;48.818;9.244;2023-08-21T01:05:21;5.00;;;2.10;;
2446;SDS011;26430;48.818;9.244;2023-08-21T01:07:53;4.70;;;0.90;;
2446;SDS011;26430;48.818;9.244;2023-08-21T01:16:07;4.70;;;0.90;;
2446;SDS011;26430;48.818;9.244;2023-08-21T01:18:33;4.70;;;0.90;;
2446;SDS011;26430;48.818;9.244;2023-08-21T01:21:02;4.70;;;0.80;;
2446;SDS011;26430;48.818;9.244;2023-08-21T01:25:58;4.70;;;0.80;;
2446;SDS011;26430;48.818;9.244;2023-08-21T01:28:24;4.73;;;0.90;;
2446;SDS011;26430;48.818;9.244;2023-08-21T01:30:51;4.77;;;0.90;;
2446;SDS011;26430;48.818;9.244;2023-08-21T01:33:24;4.73;;;0.83;;
2446;SDS011;26430;48.818;9.244;2023-08-21T01:35:54;4.70;;;0.80;;
2446;SDS011;26430;48.818;9.244;2023-08-21T01:38:22;4.70;;;0.80;;
2446;SDS011;26430;48.818;9.244;2023-08-21T01:40:48;4.77;;;0.90;;
2446;SDS011;26430;48.818;9.244;2023-08-21T01:43:14;4.70;;;0.80;;
2446;SDS011;26430;48.818;9.244;2023-08-21T01:45:39;4.73;;;0.87;;
2446;SDS011;26430;48.818;9.244;2023-08-21T01:48:05;4.73;;;0.90;;
2446;SDS011;26430;48.818;9.244;2023-08-21T01:50:31;4.70;;;0.80;;
2446;SDS011;26430;48.818;9.244;2023-08-21T01:52:57;4.73;;;0.90;;
2446;SDS011;26430;48.818;9.244;2023-08-21T01:55:22;4.80;;;0.90;;
2446;SDS011;26430;48.818;9.244;2023-08-21T01:57:48;4.77;;;0.90;;
2446;SDS011;26430;48.818;9.244;2023-08-21T02:00:13;4.73;;;0.90;;
2446;SDS011;26430;48.818;9.244;2023-08-21T02:02:39;4.70;;;0.90;;
2446;SDS011;26430;48.818;9.244;2023-08-21T02:05:05;4.70;;;0.80;;
2446;SDS011;26430;48.818;9.244;2023-08-21T02:07:31;4.70;;;0.87;;
2446;SDS011;26430;48.818;9.244;2023-08-21T02:09:56;4.70;;;0.83;;
2446;SDS011;26430;48.818;9.244;2023-08-21T02:12:22;4.70;;;0.90;;
2446;SDS011;26430;48.818;9.244;2023-08-21T02:14:47;4.73;;;0.90;;
2446;SDS011;26430;48.818;9.244;2023-08-21T02:17:13;4.70;;;0.90;;
2446;SDS011;26430;48.818;9.244;2023-08-21T02:19:39;4.70;;;0.90;;
2446;SDS011;26430;48.818;9.244;2023-08-21T02:22:04;4.70;;;0.90;;
2446;SDS011;26430;48.818;9.244;2023-08-21T02:24:30;4.70;;;0.83;;
2446;SDS011;26430;48.818;9.244;2023-08-21T02:26:55;4.70;;;0.83;;
2446;SDS011;26430;48.818;9.244;2023-08-21T02:29:21;4.70;;;0.90;;
2446;SDS011;26430;48.818;9.244;2023-08-21T02:31:46;4.70;;;0.90;;
2446;SDS011;26430;48.818;9.244;2023-08-21T02:34:12;4.73;;;0.90;;
2446;SDS011;26430;48.818;9.244;2023-08-21T02:36:37;4.70;;;0.90;;
2446;SDS011;26430;48.818;9.244;2023-08-21T02:39:03;4.73;;;0.90;;
2446;SDS011;26430;48.818;9.244;2023-08-21T02:41:29;4.70;;;0.90;;
2446;SDS011;26430;48.818;9.244;2023-08-21T02:43:54;4.70;;;0.80;;
2446;SDS011;26430;48.818;9.244;2023-08-21T02:46:20;4.70;;;0.80;;
2446;SDS011;26430;48.818;9.244;2023-08-21T02:48:45;4.77;;;0.90;;
2446;SDS011;26430;48.818;9.244;2023-08-21T02:51:11;4.70;;;0.90;;
2446;SDS011;26430;48.818;9.244;2023-08-21T02:53:37;4.70;;;0.87;;
2446;SDS011;26430;48.818;9.244;2023-08-21T02:56:02;4.70;;;0.80;;
2446;SDS011;26430;48.818;9.244;2023-08-21T02:58:28;4.70;;;0.90;;
2446;SDS011;26430;48.818;9.244;2023-08-21T03:00:53;4.73;;;0.80;;
2446;SDS011;26430;48.818;9.244;2023-08-21T03:03:19;4.77;;;0.90;;
2446;SDS011;26430;48.818;9.244;2023-08-21T03:05:44;4.70;;;0.90;;
2446;SDS011;26430;48.818;9.244;2023-08-21T03:08:10;4.70;;;0.80;;
2446;SDS011;26430;48.818;9.244;2023-08-21T03:10:35;4.70;;;0.80;;
2446;SDS011;26430;48.818;9.244;2023-08-21T03:13:02;4.70;;;0.80;;
2446;SDS011;26430;48.818;9.244;2023-08-21T03:15:27;4.67;;;0.80;;
2446;SDS011;26430;48.818;9.244;2023-08-21T03:17:54;4.63;;;0.90;;
2446;SDS011;26430;48.818;9.244;2023-08-21T03:20:19;4.73;;;0.90;;
2446;SDS011;26430;48.818;9.244;2023-08-21T03:22:45;4.70;;;0.80;;
2446;SDS011;26430;48.818;9.244;2023-08-21T03:25:11;5.50;;;2.10;;
2446;SDS011;26430;48.818;9.244;2023-08-21T03:27:37;4.70;;;0.80;;
2446;SDS011;26430;48.818;9.244;2023-08-21T03:30:05;4.80;;;1.10;;
2446;SDS011;26430;48.818;9.244;2023-08-21T03:32:31;4.70;;;0.90;;
2446;SDS011;26430;48.818;9.244;2023-08-21T03:34:57;4.67;;;0.80;;
2446;SDS011;26430;48.818;9.244;2023-08-21T03:37:23;4.70;;;0.90;;
2446;SDS011;26430;48.818;9.244;2023-08-21T03:39:49;4.70;;;0.90;;
2446;SDS011;26430;48.818;9.244;2023-08-21T03:42:14;4.73;;;0.90;;
2446;SDS011;26430;48.818;9.244;2023-08-21T03:44:40;4.67;;;0.80;;
2446;SDS011;26430;48.818;9.244;2023-08-21T03:47:05;4.60;;;0.80;;
2446;SDS011;26430;48.818;9.244;2023-08-21T03:49:31;4.70;;;0.80;;
2446;SDS011;26430;48.818;9.244;2023-08-21T03:51:56;4.70;;;0.80;;
2446;SDS011;26430;48.818;9.244;2023-08-21T03:54:22;4.70;;;0.90;;
2446;SDS011;26430;48.818;9.244;2023-08-21T03:56:47;4.77;;;0.97;;
2446;SDS011;26430;48.818;9.244;2023-08-21T03:59:13;4.77;;;0.90;;
2446;SDS011;26430;48.818;9.244;2023-08-21T04:01:38;4.70;;;0.83;;
2446;SDS011;26430;48.818;9.244;2023-08-21T04:04:04;4.80;;;1.00;;
2446;SDS011;26430;48.818;9.244;2023-08-21T04:06:29;4.70;;;0.90;;
2446;SDS011;26430;48.818;9.244;2023-08-21T04:08:55;4.67;;;0.90;;
2446;SDS011;26430;48.818;9.244;2023-08-21T04:11:20;4.67;;;0.87;;
2446;SDS011;26430;48.818;9.244;2023-08-21T04:13:46;4.70;;;0.87;;
2446;SDS011;26430;48.818;9.244;2023-08-21T04:16:11;4.73;;;0.80;;
2446;SDS011;26430;48.818;9.244;2023-08-21T04:18:37;4.80;;;0.90;;
2446;SDS011;26430;48.818;9.244;2023-08-21T04:21:03;4.80;;;0.90;;
2446;SDS011;26430;48.818;9.244;2023-08-21T04:23:29;4.70;;;0.90;;
2446;SDS011;26430;48.818;9.244;2023-08-21T04:26:04;4.73;;;0.90;;
2446;SDS011;26430;48.818;9.244;2023-08-21T04:28:30;4.77;;;0.90;;
2446;SDS011;26430;48.818;9.244;2023-08-21T04:30:56;4.70;;;0.90;;
2446;SDS011;26430;48.818;9.244;2023-08-21T04:33:23;4.70;;;0.90;;
2446;SDS011;26430;48.818;9.244;2023-08-21T04:35:49;4.70;;;0.90;;
2446;SDS011;26430;48.818;9.244;2023-08-21T04:38:15;4.70;;;0.90;;
2446;SDS011;26430;48.818;9.244;2023-08-21T04:40:40;4.70;;;0.80;;
2446;SDS011;26430;48.818;9.244;2023-08-21T04:43:06;4.80;;;1.10;;
2446;SDS011;26430;48.818;9.244;2023-08-21T04:45:32;4.70;;;0.80;;
2446;SDS011;26430;48.818;9.244;2023-08-21T04:47:58;4.70;;;0.80;;
2446;SDS011;26430;48.818;9.244;2023-08-21T04:50:23;4.73;;;0.90;;
2446;SDS011;26430;48.818;9.244;2023-08-21T04:52:49;4.70;;;0.90;;
2446;SDS011;26430;48.818;9.244;2023-08-21T04:55:15;4.70;;;0.90;;
2446;SDS011;26430;48.818;9.244;2023-08-21T04:57:41;4.73;;;0.90;;
2446;SDS011;26430;48.818;9.244;2023-08-21T05:00:07;4.70;;;0.80;;
2446;SDS011;26430;48.818;9.244;2023-08-21T05:02:33;4.70;;;0.90;;
2446;SDS011;26430;48.818;9.244;2023-08-21T05:04:59;4.77;;;0.90;;
2446;SDS011;26430;48.818;9.244;2023-08-21T05:07:25;4.77;;;0.80;;
2446;SDS011;26430;48.818;9.244;2023-08-21T05:09:52;4.70;;;0.80;;
2446;SDS011;26430;48.818;9.244;2023-08-21T05:12:17;4.73;;;0.90;;
2446;SDS011;26430;48.818;9.244;2023-08-21T05:14:43;4.70;;;0.80;;
2446;SDS011;26430;48.818;9.244;2023-08-21T05:17:08;4.67;;;0.90;;
2446;SDS011;26430;48.818;9.244;2023-08-21T05:19:34;4.70;;;0.80;;
2446;SDS011;26430;48.818;9.244;2023-08-21T05:21:59;4.70;;;0.90;;
2446;SDS011;26430;48.818;9.244;2023-08-21T05:24:25;4.70;;;0.97;;
2446;SDS011;26430;48.818;9.244;2023-08-21T05:26:50;4.70;;;0.80;;
2446;SDS011;26430;48.818;9.244;2023-08-21T05:29:16;4.70;;;0.90;;
2446;SDS011;26430;48.818;9.244;2023-08-21T05:31:41;4.70;;;0.83;;
2446;SDS011;26430;48.818;9.244;2023-08-21T05:34:07;4.73;;;0.90;;
2446;SDS011;26430;48.818;9.244;2023-08-21T05:36:33;4.70;;;0.97;;
2446;SDS011;26430;48.818;9.244;2023-08-21T05:38:58;4.70;;;0.80;;
2446;SDS011;26430;48.818;9.244;2023-08-21T05:41:27;4.70;;;0.90;;
2446;SDS011;26430;48.818;9.244;2023-08-21T05:43:53;4.70;;;0.80;;
2446;SDS011;26430;48.818;9.244;2023-08-21T05:46:18;4.70;;;0.90;;
2446;SDS011;26430;48.818;9.244;2023-08-21T05:48:44;4.73;;;0.90;;
2446;SDS011;26430;48.818;9.244;2023-08-21T05:51:09;4.70;;;0.90;;
2446;SDS011;26430;48.818;9.244;2023-08-21T05:53:35;4.70;;;0.97;;
2446;SDS011;26430;48.818;9.244;2023-08-21T05:56:00;4.70;;;0.80;;
2446;SDS011;26430;48.818;9.244;2023-08-21T05:58:26;4.73;;;0.90;;
2446;SDS011;26430;48.818;9.244;2023-08-21T06:00:55;4.75;;;0.90;;
2446;SDS011;26430;48.818;9.244;2023-08-21T06:03:21;4.75;;;0.85;;
2446;SDS011;26430;48.818;9.244;2023-08-21T06:05:47;4.63;;;0.90;;
2446;SDS011;26430;48.818;9.244;2023-08-21T06:08:12;4.73;;;0.80;;
2446;SDS011;26430;48.818;9.244;2023-08-21T06:10:38;4.80;;;0.90;;
2446;SDS011;26430;48.818;9.244;2023-08-21T06:13:03;4.67;;;0.90;;
2446;SDS011;26430;48.818;9.244;2023-08-21T06:15:29;4.70;;;0.90;;
2446;SDS011;26430;48.818;9.244;2023-08-21T06:17:54;4.73;;;0.83;;
2446;SDS011;26430;48.818;9.244;2023-08-21T06:20:20;4.77;;;0.97;;
2446;SDS011;26430;48.818;9.244;2023-08-21T06:22:46;4.67;;;0.80;;
2446;SDS011;26430;48.818;9.244;2023-08-21T06:25:11;4.70;;;0.80;;
2446;SDS011;26430;48.818;9.244;2023-08-21T06:27:38;4.70;;;0.90;;
2446;SDS011;26430;48.818;9.244;2023-08-21T06:30:04;4.70;;;0.83;;
2446;SDS011;26430;48.818;9.244;2023-08-21T06:32:30;4.70;;;0.80;;
2446;SDS011;26430;48.818;9.244;2023-08-21T06:34:56;4.70;;;0.90;;
2446;SDS011;26430;48.818;9.244;2023-08-21T06:37:21;4.63;;;0.80;;
2446;SDS011;26430;48.818;9.244;2023-08-21T06:39:47;4.70;;;0.93;;
2446;SDS011;26430;48.818;9.244;2023-08-21T06:42:12;4.70;;;0.87;;
2446;SDS011;26430;48.818;9.244;2023-08-21T06:44:38;4.70;;;0.90;;
2446;SDS011;26430;48.818;9.244;2023-08-21T06:47:03;4.70;;;0.90;;
2446;SDS011;26430;48.818;9.244;2023-08-21T06:49:29;4.67;;;0.80;;
2446;SDS011;26430;48.818;9.244;2023-08-21T06:51:54;4.67;;;0.87;;
2446;SDS011;26430;48.818;9.244;2023-08-21T06:54:20;4.70;;;0.80;;
2446;SDS011;26430;48.818;9.244;2023-08-21T06:56:46;4.70;;;0.90;;
2446;SDS011;26430;48.818;9.244;2023-08-21T06:59:11;4.70;;;0.90;;
2446;SDS011;26430;48.818;9.244;2023-08-21T07:01:37;4.70;;;0.90;;
2446;SDS011;26430;48.818;9.244;2023-08-21T07:04:02;4.70;;;0.90;;
2446;SDS011;26430;48.818;9.244;2023-08-21T07:06:28;4.67;;;0.90;;
2446;SDS011;26430;48.818;9.244;2023-08-21T07:08:55;4.70;;;0.90;;
2446;SDS011;26430;48.818;9.244;2023-08-21T07:11:20;4.57;;;0.83;;
2446;SDS011;26430;48.818;9.244;2023-08-21T07:13:46;4.67;;;0.80;;
2446;SDS011;26430;48.818;9.244;2023-08-21T07:16:11;4.70;;;0.90;;
2446;SDS011;26430;48.818;9.244;2023-08-21T07:18:37;4.70;;;0.80;;
2446;SDS011;26430;48.818;9.244;2023-08-21T07:21:03;4.70;;;0.90;;
2446;SDS011;26430;48.818;9.244;2023-08-21T07:23:30;4.70;;;0.90;;
2446;SDS011;26430;48.818;9.244;2023-08-21T07:25:56;4.70;;;0.80;;
2446;SDS011;26430;48.818;9.244;2023-08-21T07:28:23;4.70;;;0.90;;
2446;SDS011;26430;48.818;9.244;2023-08-21T07:30:54;4.67;;;0.90;;
2446;SDS011;26430;48.818;9.244;2023-08-21T07:33:24;5.97;;;4.13;;
2446;SDS011;26430;48.818;9.244;2023-08-21T07:35:57;4.70;;;0.90;;
2446;SDS011;26430;48.818;9.244;2023-08-21T07:38:23;4.70;;;0.90;;
2446;SDS011;26430;48.818;9.244;2023-08-21T07:40:49;4.60;;;0.87;;
2446;SDS011;26430;48.818;9.244;2023-08-21T07:43:14;4.60;;;0.80;;
2446;SDS011;26430;48.818;9.244;2023-08-21T07:45:40;4.60;;;0.80;;
2446;SDS011;26430;48.818;9.244;2023-08-21T07:48:05;4.63;;;0.80;;
2446;SDS011;26430;48.818;9.244;2023-08-21T07:50:31;4.70;;;0.90;;
2446;SDS011;26430;48.818;9.244;2023-08-21T07:52:57;4.70;;;1.03;;
2446;SDS011;26430;48.818;9.244;2023-08-21T07:55:22;4.60;;;0.80;;
2446;SDS011;26430;48.818;9.244;2023-08-21T07:57:48;4.70;;;0.90;;
2446;SDS011;26430;48.818;9.244;2023-08-21T08:00:14;4.63;;;0.87;;
2446;SDS011;26430;48.818;9.244;2023-08-21T08:02:39;4.60;;;0.90;;
2446;SDS011;26430;48.818;9.244;2023-08-21T08:05:05;4.63;;;0.83;;
2446;SDS011;26430;48.818;9.244;2023-08-21T08:07:31;4.60;;;0.87;;
2446;SDS011;26430;48.818;9.244;2023-08-21T08:09:56;4.60;;;0.80;;
2446;SDS011;26430;48.818;9.244;2023-08-21T08:12:22;4.60;;;0.90;;
2446;SDS011;26430;48.818;9.244;2023-08-21T08:14:48;4.67;;;0.90;;
2446;SDS011;26430;48.818;9.244;2023-08-21T08:17:13;4.63;;;0.87;;
2446;SDS011;26430;48.818;9.244;2023-08-21T08:19:39;4.70;;;0.93;;
2446;SDS011;26430;48.818;9.244;2023-08-21T08:22:05;4.63;;;0.90;;
2446;SDS011;26430;48.818;9.244;2023-08-21T08:24:30;4.63;;;0.83;;
2446;SDS011;26430;48.818;9.244;2023-08-21T08:26:56;4.63;;;0.90;;
2446;SDS011;26430;48.818;9.244;2023-08-21T08:29:22;4.60;;;0.90;;
2446;SDS011;26430;48.818;9.244;2023-08-21T08:31:47;4.63;;;0.87;;
2446;SDS011;26430;48.818;9.244;2023-08-21T08:34:13;4.63;;;0.90;;
2446;SDS011;26430;48.818;9.244;2023-08-21T08:36:38;4.60;;;0.90;;
2446;SDS011;26430;48.818;9.244;2023-08-21T08:39:06;4.60;;;0.87;;
2446;SDS011;26430;48.818;9.244;2023-08-21T08:41:39;4.60;;;0.87;;
2446;SDS011;26430;48.818;9.244;2023-08-21T08:44:19;4.60;;;0.90;;
2446;SDS011;26430;48.818;9.244;2023-08-21T08:46:44;4.60;;;0.83;;
2446;SDS011;26430;48.818;9.244;2023-08-21T08:49:11;4.60;;;0.90;;
2446;SDS011;26430;48.818;9.244;2023-08-21T08:51:37;4.60;;;0.90;;
2446;SDS011;26430;48.818;9.244;2023-08-21T08:54:04;4.63;;;0.90;;
2446;SDS011;26430;48.818;9.244;2023-08-21T08:56:30;4.60;;;0.83;;
2446;SDS011;26430;48.818;9.244;2023-08-21T08:58:56;4.60;;;0.90;;
2446;SDS011;26430;48.818;9.244;2023-08-21T09:01:21;4.60;;;0.90;;
2446;SDS011;26430;48.818;9.244;2023-08-21T09:03:47;4.60;;;0.87;;
2446;SDS011;26430;48.818;9.244;2023-08-21T09:06:15;4.60;;;0.90;;
2446;SDS011;26430;48.818;9.244;2023-08-21T09:08:44;4.57;;;0.90;;
2446;SDS011;26430;48.818;9.244;2023-08-21T09:11:19;4.53;;;0.90;;
2446;SDS011;26430;48.818;9.244;2023-08-21T09:13:45;4.60;;;0.90;;
2446;SDS011;26430;48.818;9.244;2023-08-21T09:16:13;4.60;;;0.87;;
2446;SDS011;26430;48.818;9.244;2023-08-21T09:18:46;4.57;;;0.90;;
2446;SDS011;26430;48.818;9.244;2023-08-21T09:21:15;4.60;;;0.90;;
2446;SDS011;26430;48.818;9.244;2023-08-21T09:23:44;4.60;;;0.80;;
2446;SDS011;26430;48.818;9.244;2023-08-21T09:26:11;4.60;;;0.90;;
2446;SDS011;26430;48.818;9.244;2023-08-21T09:28:45;4.53;;;0.90;;
2446;SDS011;26430;48.818;9.244;2023-08-21T09:31:10;4.60;;;0.90;;
2446;SDS011;26430;48.818;9.244;2023-08-21T09:33:36;4.60;;;0.90;;
2446;SDS011;26430;48.818;9.244;2023-08-21T09:36:02;4.63;;;0.90;;
2446;SDS011;26430;48.818;9.244;2023-08-21T09:38:33;4.60;;;0.90;;
2446;SDS011;26430;48.818;9.244;2023-08-21T09:41:00;4.70;;;1.13;;
2446;SDS011;26430;48.818;9.244;2023-08-21T09:43:26;4.53;;;0.87;;
2446;SDS011;26430;48.818;9.244;2023-08-21T09:45:53;4.60;;;0.90;;
2446;SDS011;26430;48.818;9.244;2023-08-21T09:48:24;4.57;;;0.90;;
2446;SDS011;26430;48.818;9.244;2023-08-21T09:50:53;4.57;;;0.90;;
2446;SDS011;26430;48.818;9.244;2023-08-21T09:53:21;4.57;;;0.87;;
2446;SDS011;26430;48.818;9.244;2023-08-21T09:55:48;4.57;;;0.90;;
2446;SDS011;26430;48.818;9.244;2023-08-21T09:58:17;4.57;;;0.90;;
2446;SDS011;26430;48.818;9.244;2023-08-21T10:00:44;4.57;;;0.80;;
2446;SDS011;26430;48.818;9.244;2023-08-21T10:03:13;4.57;;;0.80;;
2446;SDS011;26430;48.818;9.244;2023-08-21T10:05:43;4.60;;;0.90;;
2446;SDS011;26430;48.818;9.244;2023-08-21T10:08:09;4.53;;;0.90;;
2446;SDS011;26430;48.818;9.244;2023-08-21T10:10:36;4.57;;;0.90;;
2446;SDS011;26430;48.818;9.244;2023-08-21T10:13:03;4.57;;;0.90;;
2446;SDS011;26430;48.818;9.244;2023-08-21T10:15:30;4.60;;;0.90;;
2446;SDS011;26430;48.818;9.244;2023-08-21T10:17:56;4.57;;;0.90;;
2446;SDS011;26430;48.818;9.244;2023-08-21T10:20:25;4.50;;;0.90;;
2446;SDS011;26430;48.818;9.244;2023-08-21T10:22:54;4.53;;;0.90;;
2446;SDS011;26430;48.818;9.244;2023-08-21T10:25:26;4.50;;;0.90;;
2446;SDS011;26430;48.818;9.244;2023-08-21T10:27:52;4.47;;;0.90;;
2446;SDS011;26430;48.818;9.244;2023-08-21T10:30:23;4.60;;;1.20;;
2446;SDS011;26430;48.818;9.244;2023-08-21T10:32:50;4.50;;;0.90;;
2446;SDS011;26430;48.818;9.244;2023-08-21T10:35:21;4.40;;;0.90;;
2446;SDS011;26430;48.818;9.244;2023-08-21T10:40:41;4.47;;;0.90;;
2446;SDS011;26430;48.818;9.244;2023-08-21T10:43:45;4.40;;;0.90;;
2446;SDS011;26430;48.818;9.244;2023-08-21T10:46:11;4.43;;;0.90;;
2446;SDS011;26430;48.818;9.244;2023-08-21T10:48:38;4.40;;;1.00;;
2446;SDS011;26430;48.818;9.244;2023-08-21T10:51:05;4.40;;;0.90;;
2446;SDS011;26430;48.818;9.244;2023-08-21T10:53:32;4.40;;;0.90;;
2446;SDS011;26430;48.818;9.244;2023-08-21T10:56:05;4.37;;;0.90;;
2446;SDS011;26430;48.818;9.244;2023-08-21T10:58:43;4.40;;;0.93;;
2446;SDS011;26430;48.818;9.244;2023-08-21T11:01:14;4.30;;;0.93;;
2446;SDS011;26430;48.818;9.244;2023-08-21T11:03:40;4.37;;;0.90;;
2446;SDS011;26430;48.818;9.244;2023-08-21T11:06:10;4.40;;;1.00;;
2446;SDS011;26430;48.818;9.244;2023-08-21T11:08:36;4.43;;;1.00;;
2446;SDS011;26430;48.818;9.244;2023-08-21T11:11:02;4.50;;;0.90;;
2446;SDS011;26430;48.818;9.244;2023-08-21T11:13:29;4.50;;;0.97;;
2446;SDS011;26430;48.818;9.244;2023-08-21T11:16:01;4.43;;;0.90;;
2446;SDS011;26430;48.818;9.244;2023-08-21T11:18:31;4.40;;;0.90;;
2446;SDS011;26430;48.818;9.244;2023-08-21T11:21:09;4.40;;;0.90;;
2446;SDS011;26430;48.818;9.244;2023-08-21T11:23:36;4.37;;;0.90;;
2446;SDS011;26430;48.818;9.244;2023-08-21T11:26:03;4.40;;;0.90;;
2446;SDS011;26430;48.818;9.244;2023-08-21T11:28:30;4.37;;;0.90;;
2446;SDS011;26430;48.818;9.244;2023-08-21T11:30:56;4.47;;;0.90;;
2446;SDS011;26430;48.818;9.244;2023-08-21T11:33:22;4.40;;;0.90;;
2446;SDS011;26430;48.818;9.244;2023-08-21T11:35:48;4.33;;;0.90;;
2446;SDS011;26430;48.818;9.244;2023-08-21T11:38:18;4.43;;;0.90;;
2446;SDS011;26430;48.818;9.244;2023-08-21T11:40:55;4.43;;;0.90;;
2446;SDS011;26430;48.818;9.244;2023-08-21T11:43:33;4.40;;;0.90;;
2446;SDS011;26430;48.818;9.244;2023-08-21T11:46:03;4.47;;;0.90;;
2446;SDS011;26430;48.818;9.244;2023-08-21T11:48:29;4.43;;;0.90;;
2446;SDS011;26430;48.818;9.244;2023-08-21T11:50:54;4.47;;;0.90;;
2446;SDS011;26430;48.818;9.244;2023-08-21T11:53:30;4.50;;;1.00;;
2446;SDS011;26430;48.818;9.244;2023-08-21T11:55:58;4.40;;;0.90;;
2446;SDS011;26430;48.818;9.244;2023-08-21T11:58:25;4.43;;;0.90;;
2446;SDS011;26430;48.818;9.244;2023-08-21T12:00:51;4.40;;;0.90;;
2446;SDS011;26430;48.818;9.244;2023-08-21T12:03:17;4.63;;;1.40;;
2446;SDS011;26430;48.818;9.244;2023-08-21T12:05:43;4.40;;;0.90;;
2446;SDS011;26430;48.818;9.244;2023-08-21T12:08:09;4.50;;;1.20;;
2446;SDS011;26430;48.818;9.244;2023-08-21T12:10:34;5.10;;;2.13;;
2446;SDS011;26430;48.818;9.244;2023-08-21T12:13:00;4.33;;;0.90;;
2446;SDS011;26430;48.818;9.244;2023-08-21T12:15:26;4.40;;;1.00;;
2446;SDS011;26430;48.818;9.244;2023-08-21T12:17:51;4.40;;;0.90;;
2446;SDS011;26430;48.818;9.244;2023-08-21T12:20:17;4.47;;;0.90;;
2446;SDS011;26430;48.818;9.244;2023-08-21T12:22:43;4.43;;;0.90;;
2446;SDS011;26430;48.818;9.244;2023-08-21T12:25:08;4.53;;;0.90;;
2446;SDS011;26430;48.818;9.244;2023-08-21T12:27:35;4.47;;;0.90;;
2446;SDS011;26430;48.818;9.244;2023-08-21T12:30:01;4.50;;;0.90;;
2446;SDS011;26430;48.818;9.244;2023-08-21T12:32:26;4.50;;;0.90;;
2446;SDS011;26430;48.818;9.244;2023-08-21T12:34:52;4.50;;;0.90;;
2446;SDS011;26430;48.818;9.244;2023-08-21T12:37:18;4.50;;;1.00;;
2446;SDS011;26430;48.818;9.244;2023-08-21T12:39:43;4.40;;;1.00;;
2446;SDS011;26430;48.818;9.244;2023-08-21T12:42:09;4.47;;;0.90;;
2446;SDS011;26430;48.818;9.244;2023-08-21T12:44:34;4.43;;;1.00;;
2446;SDS011;26430;48.818;9.244;2023-08-21T12:47:00;4.43;;;0.90;;
2446;SDS011;26430;48.818;9.244;2023-08-21T12:49:26;4.40;;;0.90;;
2446;SDS011;26430;48.818;9.244;2023-08-21T12:51:51;4.40;;;0.90;;
2446;SDS011;26430;48.818;9.244;2023-08-21T12:54:17;4.33;;;0.90;;
2446;SDS011;26430;48.818;9.244;2023-08-21T12:56:43;4.40;;;0.90;;
2446;SDS011;26430;48.818;9.244;2023-08-21T12:59:08;4.50;;;0.90;;
2446;SDS011;26430;48.818;9.244;2023-08-21T13:01:34;4.43;;;0.90;;
2446;SDS011;26430;48.818;9.244;2023-08-21T13:04:00;4.47;;;0.90;;
2446;SDS011;26430;48.818;9.244;2023-08-21T13:06:26;4.40;;;1.00;;
2446;SDS011;26430;48.818;9.244;2023-08-21T13:08:52;4.40;;;0.90;;
2446;SDS011;26430;48.818;9.244;2023-08-21T13:11:19;4.40;;;0.90;;
2446;SDS011;26430;48.818;9.244;2023-08-21T13:13:44;4.40;;;0.90;;
2446;SDS011;26430;48.818;9.244;2023-08-21T13:16:10;4.40;;;0.90;;
2446;SDS011;26430;48.818;9.244;2023-08-21T13:18:35;4.40;;;0.90;;
2446;SDS011;26430;48.818;9.244;2023-08-21T13:21:01;4.43;;;0.90;;
2446;SDS011;26430;48.818;9.244;2023-08-21T13:23:27;4.40;;;0.90;;
2446;SDS011;26430;48.818;9.244;2023-08-21T13:25:54;4.47;;;0.90;;
2446;SDS011;26430;48.818;9.244;2023-08-21T13:28:19;4.40;;;0.90;;
2446;SDS011;26430;48.818;9.244;2023-08-21T13:30:45;4.47;;;0.90;;
2446;SDS011;26430;48.818;9.244;2023-08-21T13:33:11;4.47;;;0.90;;
2446;SDS011;26430;48.818;9.244;2023-08-21T13:35:36;4.47;;;0.90;;
2446;SDS011;26430;48.818;9.244;2023-08-21T13:38:02;4.47;;;0.90;;
2446;SDS011;26430;48.818;9.244;2023-08-21T13:40:28;4.47;;;1.00;;
2446;SDS011;26430;48.818;9.244;2023-08-21T13:42:54;4.40;;;0.90;;
2446;SDS011;26430;48.818;9.244;2023-08-21T13:45:20;4.43;;;0.90;;
2446;SDS011;26430;48.818;9.244;2023-08-21T13:47:47;4.43;;;0.90;;
2446;SDS011;26430;48.818;9.244;2023-08-21T13:50:13;4.40;;;0.90;;
2446;SDS011;26430;48.818;9.244;2023-08-21T13:52:40;4.40;;;1.10;;
2446;SDS011;26430;48.818;9.244;2023-08-21T13:55:07;4.40;;;0.90;;
2446;SDS011;26430;48.818;9.244;2023-08-21T13:57:34;4.47;;;0.90;;
2446;SDS011;26430;48.818;9.244;2023-08-21T14:00:00;4.40;;;0.90;;
2446;SDS011;26430;48.818;9.244;2023-08-21T14:02:32;4.40;;;0.90;;
2446;SDS011;26430;48.818;9.244;2023-08-21T14:04:58;4.40;;;0.90;;
2446;SDS011;26430;48.818;9.244;2023-08-21T14:07:23;4.37;;;0.90;;
2446;SDS011;26430;48.818;9.244;2023-08-21T14:09:49;4.40;;;0.90;;
2446;SDS011;26430;48.818;9.244;2023-08-21T14:12:15;4.43;;;0.90;;
2446;SDS011;26430;48.818;9.244;2023-08-21T14:14:40;4.37;;;0.90;;
2446;SDS011;26430;48.818;9.244;2023-08-21T14:17:06;4.43;;;0.90;;
2446;SDS011;26430;48.818;9.244;2023-08-21T14:19:31;4.40;;;0.90;;
2446;SDS011;26430;48.818;9.244;2023-08-21T14:21:57;4.43;;;1.00;;
2446;SDS011;26430;48.818;9.244;2023-08-21T14:24:23;4.40;;;1.00;;
2446;SDS011;26430;48.818;9.244;2023-08-21T14:26:49;4.47;;;0.90;;
2446;SDS011;26430;48.818;9.244;2023-08-21T14:29:15;4.47;;;0.90;;
2446;SDS011;26430;48.818;9.244;2023-08-21T14:31:40;4.47;;;1.00;;
2446;SDS011;26430;48.818;9.244;2023-08-21T14:34:06;4.50;;;0.90;;
2446;SDS011;26430;48.818;9.244;2023-08-21T14:36:31;4.43;;;0.90;;
2446;SDS011;26430;48.818;9.244;2023-08-21T14:38:57;4.40;;;0.90;;
2446;SDS011;26430;48.818;9.244;2023-08-21T14:41:24;4.43;;;0.90;;
2446;SDS011;26430;48.818;9.244;2023-08-21T14:43:49;4.40;;;0.90;;
2446;SDS011;26430;48.818;9.244;2023-08-21T14:46:15;4.40;;;0.90;;
2446;SDS011;26430;48.818;9.244;2023-08-21T14:48:40;4.43;;;0.90;;
2446;SDS011;26430;48.818;9.244;2023-08-21T14:51:06;4.37;;;0.90;;
2446;SDS011;26430;48.818;9.244;2023-08-21T14:53:32;4.50;;;1.10;;
2446;SDS011;26430;48.818;9.244;2023-08-21T14:55:57;4.40;;;0.90;;
2446;SDS011;26430;48.818;9.244;2023-08-21T14:58:23;4.50;;;1.03;;
2446;SDS011;26430;48.818;9.244;2023-08-21T15:00:49;4.43;;;0.93;;
2446;SDS011;26430;48.818;9.244;2023-08-21T15:03:18;4.40;;;0.90;;
2446;SDS011;26430;48.818;9.244;2023-08-21T15:05:44;4.30;;;0.90;;
2446;SDS011;26430;48.818;9.244;2023-08-21T15:08:10;4.40;;;0.90;;